sensor_id;sensor_type;location;lat;lon;timestamp;pressure;altitude;pressure_sealevel;temperature;humidity
1480;BME280;732;51.698;4.886;2023-03-21T00:02:10;101765.31;;;6.36;80.17
1480;BME280;732;51.698;4.886;2023-03-21T00:04:39;101800.25;;;6.64;80.29
1480;BME280;732;51.698;4.886;2023-03-21T00:07:18;101785.16;;;6.43;80.61
1480;BME280;732;51.698;4.886;2023-03-21T00:09:47;101790.03;;;6.38;80.27
1480;BME280;732;51.698;4.886;2023-03-21T00:12:15;101790.63;;;6.51;80.09
1480;BME280;732;51.698;4.886;2023-03-21T00:14:48;101779.97;;;6.51;80.32
1480;BME280;732;51.698;4.886;2023-03-21T00:17:16;101784.78;;;6.58;79.65
1480;BME280;732;51.698;4.886;2023-03-21T00:19:48;101753.66;;;6.58;79.53
1480;BME280;732;51.698;4.886;2023-03-21T00:22:17;101778.75;;;6.87;78.74
1480;BME280;732;51.698;4.886;2023-03-21T00:24:45;101773.31;;;6.98;78.49
1480;BME280;732;51.698;4.886;2023-03-21T00:27:14;101745.06;;;6.55;78.96
1480;BME280;732;51.698;4.886;2023-03-21T00:30:05;101753.91;;;6.55;79.05
1480;BME280;732;51.698;4.886;2023-03-21T00:32:34;101782.66;;;6.82;79.12
1480;BME280;732;51.698;4.886;2023-03-21T00:35:15;101781.94;;;6.80;79.05
1480;BME280;732;51.698;4.886;2023-03-21T00:38:06;101768.81;;;6.67;79.40
1480;BME280;732;51.698;4.886;2023-03-21T00:40:34;101760.81;;;6.67;79.89
1480;BME280;732;51.698;4.886;2023-03-21T00:43:13;101737.59;;;6.48;79.88
1480;BME280;732;51.698;4.886;2023-03-21T00:45:45;101725.00;;;6.29;80.69
1480;BME280;732;51.698;4.886;2023-03-21T00:48:16;101737.75;;;6.26;80.92
1480;BME280;732;51.698;4.886;2023-03-21T00:50:45;101749.69;;;6.31;80.78
1480;BME280;732;51.698;4.886;2023-03-21T00:53:14;101748.22;;;6.39;81.04
1480;BME280;732;51.698;4.886;2023-03-21T00:55:43;101723.06;;;6.10;81.54
1480;BME280;732;51.698;4.886;2023-03-21T00:58:11;101750.50;;;6.22;81.52
1480;BME280;732;51.698;4.886;2023-03-21T01:00:39;101744.97;;;6.14;82.24
1480;BME280;732;51.698;4.886;2023-03-21T01:03:12;101707.81;;;5.91;82.27
1480;BME280;732;51.698;4.886;2023-03-21T01:05:51;101740.66;;;6.23;82.03
1480;BME280;732;51.698;4.886;2023-03-21T01:08:35;101738.72;;;6.25;81.84
1480;BME280;732;51.698;4.886;2023-03-21T01:11:21;101739.31;;;6.28;81.25
1480;BME280;732;51.698;4.886;2023-03-21T01:13:50;101736.50;;;6.30;81.36
1480;BME280;732;51.698;4.886;2023-03-21T01:16:33;101724.94;;;6.41;81.26
1480;BME280;732;51.698;4.886;2023-03-21T01:19:06;101676.41;;;6.16;80.27
1480;BME280;732;51.698;4.886;2023-03-21T01:21:50;101700.88;;;6.31;80.55
1480;BME280;732;51.698;4.886;2023-03-21T01:24:19;101697.94;;;6.34;80.22
1480;BME280;732;51.698;4.886;2023-03-21T01:26:48;101704.38;;;6.31;80.53
1480;BME280;732;51.698;4.886;2023-03-21T01:29:16;101691.06;;;6.31;80.33
1480;BME280;732;51.698;4.886;2023-03-21T01:31:45;101681.06;;;6.24;80.45
1480;BME280;732;51.698;4.886;2023-03-21T01:34:15;101716.03;;;6.61;80.09
1480;BME280;732;51.698;4.886;2023-03-21T01:36:44;101701.31;;;6.67;79.71
1480;BME280;732;51.698;4.886;2023-03-21T01:39:16;101701.19;;;6.68;79.17
1480;BME280;732;51.698;4.886;2023-03-21T01:41:48;101698.66;;;6.67;79.48
1480;BME280;732;51.698;4.886;2023-03-21T01:44:27;101667.13;;;6.41;79.42
1480;BME280;732;51.698;4.886;2023-03-21T01:46:57;101694.44;;;6.64;79.48
1480;BME280;732;51.698;4.886;2023-03-21T01:49:50;101689.91;;;6.55;79.78
1480;BME280;732;51.698;4.886;2023-03-21T01:52:25;101685.06;;;6.39;80.24
1480;BME280;732;51.698;4.886;2023-03-21T01:55:14;101689.06;;;6.55;79.63
1480;BME280;732;51.698;4.886;2023-03-21T01:58:02;101686.50;;;6.43;79.76
1480;BME280;732;51.698;4.886;2023-03-21T02:01:06;101682.88;;;6.44;80.06
1480;BME280;732;51.698;4.886;2023-03-21T02:03:43;101681.47;;;6.50;80.09
1480;BME280;732;51.698;4.886;2023-03-21T02:06:47;101681.50;;;6.60;79.85
1480;BME280;732;51.698;4.886;2023-03-21T02:09:42;101654.78;;;6.40;79.64
1480;BME280;732;51.698;4.886;2023-03-21T02:12:15;101675.34;;;6.59;79.67
1480;BME280;732;51.698;4.886;2023-03-21T02:14:47;101663.72;;;6.29;80.38
1480;BME280;732;51.698;4.886;2023-03-21T02:17:35;101671.28;;;6.34;80.37
1480;BME280;732;51.698;4.886;2023-03-21T02:24:14;101657.50;;;6.29;80.18
1480;BME280;732;51.698;4.886;2023-03-21T02:27:06;101643.63;;;6.25;80.71
1480;BME280;732;51.698;4.886;2023-03-21T02:30:34;101654.19;;;6.36;80.30
1480;BME280;732;51.698;4.886;2023-03-21T02:36:52;101648.34;;;6.43;80.02
1480;BME280;732;51.698;4.886;2023-03-21T02:39:26;101625.84;;;6.35;79.92
1480;BME280;732;51.698;4.886;2023-03-21T02:42:04;101625.50;;;6.50;79.53
1480;BME280;732;51.698;4.886;2023-03-21T02:44:41;101639.44;;;6.73;79.01
1480;BME280;732;51.698;4.886;2023-03-21T02:47:15;101628.31;;;6.48;79.08
1480;BME280;732;51.698;4.886;2023-03-21T02:49:51;101607.47;;;6.32;79.84
1480;BME280;732;51.698;4.886;2023-03-21T02:52:27;101589.41;;;6.36;79.29
1480;BME280;732;51.698;4.886;2023-03-21T02:55:10;101597.31;;;6.57;78.81
1480;BME280;732;51.698;4.886;2023-03-21T02:58:10;101630.19;;;6.87;78.52
1480;BME280;732;51.698;4.886;2023-03-21T03:00:45;101622.47;;;6.84;78.15
1480;BME280;732;51.698;4.886;2023-03-21T03:03:25;101623.75;;;6.90;77.87
1480;BME280;732;51.698;4.886;2023-03-21T03:06:08;101624.31;;;6.93;77.69
1480;BME280;732;51.698;4.886;2023-03-21T03:09:00;101576.38;;;6.52;77.83
1480;BME280;732;51.698;4.886;2023-03-21T03:11:36;101621.19;;;6.78;78.20
1480;BME280;732;51.698;4.886;2023-03-21T03:14:31;101596.56;;;6.45;78.59
1480;BME280;732;51.698;4.886;2023-03-21T03:17:42;101595.47;;;6.38;78.91
1480;BME280;732;51.698;4.886;2023-03-21T03:20:23;101589.16;;;6.49;78.61
1480;BME280;732;51.698;4.886;2023-03-21T03:23:11;101575.44;;;6.23;78.33
1480;BME280;732;51.698;4.886;2023-03-21T03:25:47;101613.28;;;6.47;78.43
1480;BME280;732;51.698;4.886;2023-03-21T03:28:24;101624.69;;;6.59;78.35
1480;BME280;732;51.698;4.886;2023-03-21T03:30:55;101619.47;;;6.58;78.27
1480;BME280;732;51.698;4.886;2023-03-21T03:33:45;101626.66;;;6.67;77.88
1480;BME280;732;51.698;4.886;2023-03-21T03:36:19;101613.19;;;6.68;77.67
1480;BME280;732;51.698;4.886;2023-03-21T03:39:05;101604.34;;;6.68;77.61
1480;BME280;732;51.698;4.886;2023-03-21T03:41:44;101576.69;;;6.59;77.09
1480;BME280;732;51.698;4.886;2023-03-21T03:44:38;101581.75;;;6.62;77.47
1480;BME280;732;51.698;4.886;2023-03-21T03:47:10;101605.06;;;6.80;76.93
1480;BME280;732;51.698;4.886;2023-03-21T03:50:03;101591.72;;;6.80;77.08
1480;BME280;732;51.698;4.886;2023-03-21T03:52:38;101571.25;;;6.80;76.77
1480;BME280;732;51.698;4.886;2023-03-21T03:55:24;101569.66;;;6.78;77.04
1480;BME280;732;51.698;4.886;2023-03-21T03:58:03;101511.00;;;6.48;76.73
1480;BME280;732;51.698;4.886;2023-03-21T04:00:46;101474.75;;;6.26;76.81
1480;BME280;732;51.698;4.886;2023-03-21T04:03:15;101453.97;;;6.10;76.91
1480;BME280;732;51.698;4.886;2023-03-21T04:05:44;101478.94;;;6.19;76.81
1480;BME280;732;51.698;4.886;2023-03-21T04:08:15;101564.91;;;6.62;77.09
1480;BME280;732;51.698;4.886;2023-03-21T04:10:49;101505.03;;;6.15;77.44
1480;BME280;732;51.698;4.886;2023-03-21T04:13:20;101577.22;;;6.63;77.54
1480;BME280;732;51.698;4.886;2023-03-21T04:16:10;101581.59;;;6.64;77.67
1480;BME280;732;51.698;4.886;2023-03-21T04:18:41;101562.91;;;6.54;77.69
1480;BME280;732;51.698;4.886;2023-03-21T04:21:11;101567.97;;;6.57;78.09
1480;BME280;732;51.698;4.886;2023-03-21T04:23:41;101542.59;;;6.53;77.82
1480;BME280;732;51.698;4.886;2023-03-21T04:26:10;101448.06;;;5.87;77.76
1480;BME280;732;51.698;4.886;2023-03-21T04:28:47;101563.22;;;6.61;77.50
1480;BME280;732;51.698;4.886;2023-03-21T04:31:33;101463.22;;;6.06;77.48
1480;BME280;732;51.698;4.886;2023-03-21T04:34:09;101497.75;;;6.27;77.34
1480;BME280;732;51.698;4.886;2023-03-21T04:36:43;101374.41;;;5.57;77.01
1480;BME280;732;51.698;4.886;2023-03-21T04:39:14;101545.81;;;6.66;76.74
1480;BME280;732;51.698;4.886;2023-03-21T04:41:47;101526.59;;;6.53;76.68
1480;BME280;732;51.698;4.886;2023-03-21T04:44:17;101523.16;;;6.31;77.25
1480;BME280;732;51.698;4.886;2023-03-21T04:46:46;101551.41;;;6.54;77.23
1480;BME280;732;51.698;4.886;2023-03-21T04:49:14;101542.03;;;6.59;77.25
1480;BME280;732;51.698;4.886;2023-03-21T04:51:44;101421.56;;;5.85;77.11
1480;BME280;732;51.698;4.886;2023-03-21T04:54:17;101447.41;;;6.04;76.59
1480;BME280;732;51.698;4.886;2023-03-21T04:56:47;101503.84;;;6.59;76.69
1480;BME280;732;51.698;4.886;2023-03-21T04:59:17;101366.03;;;5.71;76.07
1480;BME280;732;51.698;4.886;2023-03-21T05:01:46;101535.72;;;6.80;76.49
1480;BME280;732;51.698;4.886;2023-03-21T05:04:16;101479.16;;;6.37;76.24
1480;BME280;732;51.698;4.886;2023-03-21T05:06:45;101538.09;;;6.73;76.40
1480;BME280;732;51.698;4.886;2023-03-21T05:09:15;101530.50;;;6.68;76.75
1480;BME280;732;51.698;4.886;2023-03-21T05:11:44;101514.78;;;6.46;76.96
1480;BME280;732;51.698;4.886;2023-03-21T05:14:18;101536.25;;;6.64;76.82
1480;BME280;732;51.698;4.886;2023-03-21T05:16:47;101527.56;;;6.62;76.77
1480;BME280;732;51.698;4.886;2023-03-21T05:19:22;101520.97;;;6.56;76.61
1480;BME280;732;51.698;4.886;2023-03-21T05:21:51;101495.97;;;6.38;76.60
1480;BME280;732;51.698;4.886;2023-03-21T05:24:24;101528.81;;;6.58;76.74
1480;BME280;732;51.698;4.886;2023-03-21T05:26:53;101527.28;;;6.55;76.84
1480;BME280;732;51.698;4.886;2023-03-21T05:29:29;101534.72;;;6.61;76.39
1480;BME280;732;51.698;4.886;2023-03-21T05:32:01;101442.50;;;6.10;76.63
1480;BME280;732;51.698;4.886;2023-03-21T05:34:30;101527.69;;;6.60;76.72
1480;BME280;732;51.698;4.886;2023-03-21T05:36:59;101528.25;;;6.64;76.70
1480;BME280;732;51.698;4.886;2023-03-21T05:39:49;101540.59;;;6.45;77.00
1480;BME280;732;51.698;4.886;2023-03-21T05:42:28;101531.75;;;6.45;77.16
1480;BME280;732;51.698;4.886;2023-03-21T05:44:58;101534.44;;;6.45;77.35
1480;BME280;732;51.698;4.886;2023-03-21T05:47:30;101533.31;;;6.47;77.12
1480;BME280;732;51.698;4.886;2023-03-21T05:49:59;101525.06;;;6.50;76.96
1480;BME280;732;51.698;4.886;2023-03-21T05:52:29;101526.13;;;6.48;76.89
1480;BME280;732;51.698;4.886;2023-03-21T05:54:59;101531.78;;;6.55;76.63
1480;BME280;732;51.698;4.886;2023-03-21T05:57:27;101503.50;;;6.23;76.75
1480;BME280;732;51.698;4.886;2023-03-21T06:00:06;101518.53;;;6.33;77.00
1480;BME280;732;51.698;4.886;2023-03-21T06:02:53;101527.84;;;6.49;76.69
1480;BME280;732;51.698;4.886;2023-03-21T06:05:36;101535.56;;;6.62;76.46
1480;BME280;732;51.698;4.886;2023-03-21T06:08:07;101497.25;;;6.43;76.31
1480;BME280;732;51.698;4.886;2023-03-21T06:10:36;101533.34;;;6.77;75.63
1480;BME280;732;51.698;4.886;2023-03-21T06:13:04;101540.63;;;6.75;75.55
1480;BME280;732;51.698;4.886;2023-03-21T06:15:34;101528.25;;;6.74;75.10
1480;BME280;732;51.698;4.886;2023-03-21T06:18:10;101532.47;;;6.76;75.43
1480;BME280;732;51.698;4.886;2023-03-21T06:20:43;101532.75;;;6.63;75.69
1480;BME280;732;51.698;4.886;2023-03-21T06:23:11;101533.47;;;6.65;76.16
1480;BME280;732;51.698;4.886;2023-03-21T06:25:40;101535.59;;;6.72;75.47
1480;BME280;732;51.698;4.886;2023-03-21T06:28:08;101501.59;;;6.64;75.35
1480;BME280;732;51.698;4.886;2023-03-21T06:30:41;101518.16;;;6.67;75.13
1480;BME280;732;51.698;4.886;2023-03-21T06:33:17;101518.72;;;6.81;74.93
1480;BME280;732;51.698;4.886;2023-03-21T06:35:50;101545.41;;;7.00;74.67
1480;BME280;732;51.698;4.886;2023-03-21T06:38:21;101488.81;;;6.48;74.98
1480;BME280;732;51.698;4.886;2023-03-21T06:40:53;101515.78;;;6.74;74.75
1480;BME280;732;51.698;4.886;2023-03-21T06:43:24;101546.38;;;6.90;nan
1480;BME280;732;51.698;4.886;2023-03-21T06:45:57;101524.91;;;6.62;75.27
1480;BME280;732;51.698;4.886;2023-03-21T06:48:28;101394.44;;;5.61;76.25
1480;BME280;732;51.698;4.886;2023-03-21T06:50:57;101551.97;;;6.47;77.25
1480;BME280;732;51.698;4.886;2023-03-21T06:53:28;101558.78;;;6.20;77.58
1480;BME280;732;51.698;4.886;2023-03-21T06:56:13;101524.19;;;5.90;78.21
1480;BME280;732;51.698;4.886;2023-03-21T06:58:43;101556.91;;;6.11;77.92
1480;BME280;732;51.698;4.886;2023-03-21T07:01:30;101557.19;;;6.08;78.79
1480;BME280;732;51.698;4.886;2023-03-21T07:04:04;101560.72;;;6.18;78.31
1480;BME280;732;51.698;4.886;2023-03-21T07:06:33;101497.78;;;5.77;78.71
1480;BME280;732;51.698;4.886;2023-03-21T07:09:03;101526.47;;;6.14;78.76
1480;BME280;732;51.698;4.886;2023-03-21T07:11:35;101524.97;;;6.21;78.59
1480;BME280;732;51.698;4.886;2023-03-21T07:14:05;101546.25;;;6.11;79.10
1480;BME280;732;51.698;4.886;2023-03-21T07:16:35;101507.63;;;5.86;78.88
1480;BME280;732;51.698;4.886;2023-03-21T07:19:03;101493.72;;;5.42;79.50
1480;BME280;732;51.698;4.886;2023-03-21T07:21:32;101557.94;;;5.89;79.34
1480;BME280;732;51.698;4.886;2023-03-21T07:24:00;101546.34;;;6.00;79.20
1480;BME280;732;51.698;4.886;2023-03-21T07:26:28;101550.31;;;6.15;79.12
1480;BME280;732;51.698;4.886;2023-03-21T07:28:58;101535.34;;;6.14;79.20
1480;BME280;732;51.698;4.886;2023-03-21T07:31:26;101532.47;;;6.37;78.98
1480;BME280;732;51.698;4.886;2023-03-21T07:33:57;101529.09;;;6.45;78.41
1480;BME280;732;51.698;4.886;2023-03-21T07:36:25;101467.75;;;6.25;78.08
1480;BME280;732;51.698;4.886;2023-03-21T07:38:54;101477.69;;;6.33;78.55
1480;BME280;732;51.698;4.886;2023-03-21T07:41:23;101468.03;;;6.32;78.24
1480;BME280;732;51.698;4.886;2023-03-21T07:43:52;101456.25;;;6.34;78.08
1480;BME280;732;51.698;4.886;2023-03-21T07:46:20;101508.91;;;6.62;78.65
1480;BME280;732;51.698;4.886;2023-03-21T07:48:48;101497.13;;;6.64;78.65
1480;BME280;732;51.698;4.886;2023-03-21T07:51:18;101524.16;;;6.99;78.15
1480;BME280;732;51.698;4.886;2023-03-21T07:53:46;101520.66;;;7.08;77.86
1480;BME280;732;51.698;4.886;2023-03-21T07:56:15;101486.72;;;6.91;78.14
1480;BME280;732;51.698;4.886;2023-03-21T07:58:43;101520.50;;;7.10;78.25
1480;BME280;732;51.698;4.886;2023-03-21T08:01:12;101490.91;;;7.03;78.61
1480;BME280;732;51.698;4.886;2023-03-21T08:03:40;101493.53;;;7.23;78.00
1480;BME280;732;51.698;4.886;2023-03-21T08:06:10;101511.88;;;7.45;78.11
1480;BME280;732;51.698;4.886;2023-03-21T08:08:39;101509.84;;;7.57;78.04
1480;BME280;732;51.698;4.886;2023-03-21T08:11:09;101512.13;;;7.52;77.94
1480;BME280;732;51.698;4.886;2023-03-21T08:13:38;101511.38;;;7.60;77.83
1480;BME280;732;51.698;4.886;2023-03-21T08:16:08;101499.16;;;7.57;77.74
1480;BME280;732;51.698;4.886;2023-03-21T08:18:38;101490.41;;;7.65;77.67
1480;BME280;732;51.698;4.886;2023-03-21T08:21:08;101446.38;;;7.41;77.73
1480;BME280;732;51.698;4.886;2023-03-21T08:23:40;101487.69;;;7.75;77.77
1480;BME280;732;51.698;4.886;2023-03-21T08:26:08;101481.53;;;7.74;77.80
1480;BME280;732;51.698;4.886;2023-03-21T08:28:37;101479.34;;;7.88;77.58
1480;BME280;732;51.698;4.886;2023-03-21T08:31:09;101469.09;;;7.83;77.06
1480;BME280;732;51.698;4.886;2023-03-21T08:33:38;101475.94;;;7.95;76.96
1480;BME280;732;51.698;4.886;2023-03-21T08:36:09;101466.53;;;7.91;76.88
1480;BME280;732;51.698;4.886;2023-03-21T08:38:37;101473.25;;;7.95;76.89
1480;BME280;732;51.698;4.886;2023-03-21T08:41:07;101463.22;;;8.07;76.64
1480;BME280;732;51.698;4.886;2023-03-21T08:43:36;101470.78;;;8.12;76.50
1480;BME280;732;51.698;4.886;2023-03-21T08:46:05;101464.69;;;8.02;76.51
1480;BME280;732;51.698;4.886;2023-03-21T08:48:34;101459.72;;;8.07;76.17
1480;BME280;732;51.698;4.886;2023-03-21T08:51:05;101470.50;;;8.15;75.88
1480;BME280;732;51.698;4.886;2023-03-21T08:53:33;101462.47;;;8.15;75.60
1480;BME280;732;51.698;4.886;2023-03-21T08:56:02;101445.81;;;8.03;75.48
1480;BME280;732;51.698;4.886;2023-03-21T08:58:31;101395.19;;;7.74;75.41
1480;BME280;732;51.698;4.886;2023-03-21T09:01:00;101471.34;;;8.16;74.67
1480;BME280;732;51.698;4.886;2023-03-21T09:03:28;101467.34;;;8.02;75.20
1480;BME280;732;51.698;4.886;2023-03-21T09:05:56;101459.88;;;8.05;75.39
1480;BME280;732;51.698;4.886;2023-03-21T09:08:25;101464.50;;;8.03;75.12
1480;BME280;732;51.698;4.886;2023-03-21T09:10:55;101454.75;;;8.12;75.55
1480;BME280;732;51.698;4.886;2023-03-21T09:13:24;101390.56;;;7.76;75.79
1480;BME280;732;51.698;4.886;2023-03-21T09:15:54;101442.06;;;8.32;75.57
1480;BME280;732;51.698;4.886;2023-03-21T09:18:25;101431.13;;;8.43;75.21
1480;BME280;732;51.698;4.886;2023-03-21T09:21:08;101409.09;;;8.41;74.65
1480;BME280;732;51.698;4.886;2023-03-21T09:23:39;101407.69;;;8.55;74.07
1480;BME280;732;51.698;4.886;2023-03-21T09:26:07;101435.44;;;8.81;74.20
1480;BME280;732;51.698;4.886;2023-03-21T09:28:36;101438.91;;;8.99;74.00
1480;BME280;732;51.698;4.886;2023-03-21T09:31:06;101395.66;;;8.77;73.38
1480;BME280;732;51.698;4.886;2023-03-21T09:33:38;101409.66;;;9.06;73.16
1480;BME280;732;51.698;4.886;2023-03-21T09:36:09;101429.22;;;9.33;72.69
1480;BME280;732;51.698;4.886;2023-03-21T09:38:40;101431.47;;;9.37;72.04
1480;BME280;732;51.698;4.886;2023-03-21T09:41:29;101435.41;;;9.59;71.91
1480;BME280;732;51.698;4.886;2023-03-21T09:44:12;101434.41;;;9.61;70.66
1480;BME280;732;51.698;4.886;2023-03-21T09:46:50;101433.03;;;9.56;70.81
1480;BME280;732;51.698;4.886;2023-03-21T09:49:23;101408.50;;;9.35;71.16
1480;BME280;732;51.698;4.886;2023-03-21T09:51:59;101398.69;;;9.52;71.56
1480;BME280;732;51.698;4.886;2023-03-21T09:54:34;101430.13;;;9.84;70.63
1480;BME280;732;51.698;4.886;2023-03-21T09:57:11;101425.84;;;10.24;70.49
1480;BME280;732;51.698;4.886;2023-03-21T09:59:42;101425.69;;;10.43;69.56
1480;BME280;732;51.698;4.886;2023-03-21T10:02:27;101425.28;;;9.96;67.50
1480;BME280;732;51.698;4.886;2023-03-21T10:05:11;101392.91;;;9.65;68.91
1480;BME280;732;51.698;4.886;2023-03-21T10:07:51;101412.91;;;9.87;69.69
1480;BME280;732;51.698;4.886;2023-03-21T10:10:27;101375.69;;;9.84;69.57
1480;BME280;732;51.698;4.886;2023-03-21T10:12:55;101391.25;;;9.80;68.71
1480;BME280;732;51.698;4.886;2023-03-21T10:15:25;101376.38;;;9.86;68.97
1480;BME280;732;51.698;4.886;2023-03-21T10:17:59;101419.22;;;9.78;68.82
1480;BME280;732;51.698;4.886;2023-03-21T10:20:31;101412.88;;;9.36;68.73
1480;BME280;732;51.698;4.886;2023-03-21T10:23:03;101405.25;;;9.23;69.07
1480;BME280;732;51.698;4.886;2023-03-21T10:25:35;101423.13;;;9.14;69.72
1480;BME280;732;51.698;4.886;2023-03-21T10:28:06;101411.19;;;9.35;69.85
1480;BME280;732;51.698;4.886;2023-03-21T10:30:39;101394.38;;;9.24;69.03
1480;BME280;732;51.698;4.886;2023-03-21T10:33:16;101368.63;;;9.32;69.05
1480;BME280;732;51.698;4.886;2023-03-21T10:35:50;101409.97;;;9.64;68.29
1480;BME280;732;51.698;4.886;2023-03-21T10:38:22;101407.13;;;9.65;67.79
1480;BME280;732;51.698;4.886;2023-03-21T10:40:52;101365.44;;;9.28;68.01
1480;BME280;732;51.698;4.886;2023-03-21T10:43:33;101377.78;;;9.47;68.03
1480;BME280;732;51.698;4.886;2023-03-21T10:46:08;101420.84;;;9.62;67.46
1480;BME280;732;51.698;4.886;2023-03-21T10:48:41;101356.50;;;9.46;67.58
1480;BME280;732;51.698;4.886;2023-03-21T10:51:18;101378.72;;;9.89;66.95
1480;BME280;732;51.698;4.886;2023-03-21T10:53:51;101399.38;;;10.13;65.48
1480;BME280;732;51.698;4.886;2023-03-21T10:56:24;101401.50;;;10.01;65.45
1480;BME280;732;51.698;4.886;2023-03-21T10:58:55;101403.19;;;10.02;66.62
1480;BME280;732;51.698;4.886;2023-03-21T11:01:29;101376.22;;;10.04;65.14
1480;BME280;732;51.698;4.886;2023-03-21T11:04:05;101380.72;;;9.87;64.59
1480;BME280;732;51.698;4.886;2023-03-21T11:06:38;101379.41;;;10.07;65.97
1480;BME280;732;51.698;4.886;2023-03-21T11:09:14;101317.38;;;9.61;64.65
1480;BME280;732;51.698;4.886;2023-03-21T11:11:50;101390.47;;;10.37;64.97
1480;BME280;732;51.698;4.886;2023-03-21T11:14:41;101394.66;;;10.23;64.80
1480;BME280;732;51.698;4.886;2023-03-21T11:17:22;101394.16;;;10.03;64.52
1480;BME280;732;51.698;4.886;2023-03-21T11:19:56;101401.75;;;9.65;65.53
1480;BME280;732;51.698;4.886;2023-03-21T11:22:28;101379.44;;;9.48;66.10
1480;BME280;732;51.698;4.886;2023-03-21T11:25:01;101380.50;;;9.72;66.32
1480;BME280;732;51.698;4.886;2023-03-21T11:27:30;101390.28;;;10.14;65.87
1480;BME280;732;51.698;4.886;2023-03-21T11:30:02;101394.97;;;10.20;64.59
1480;BME280;732;51.698;4.886;2023-03-21T11:32:33;101364.94;;;9.75;64.97
1480;BME280;732;51.698;4.886;2023-03-21T11:35:11;101370.59;;;9.64;66.10
1480;BME280;732;51.698;4.886;2023-03-21T11:37:44;101361.72;;;9.55;66.45
1480;BME280;732;51.698;4.886;2023-03-21T11:40:22;101342.63;;;9.50;66.48
1480;BME280;732;51.698;4.886;2023-03-21T11:42:54;101339.47;;;9.63;65.64
1480;BME280;732;51.698;4.886;2023-03-21T11:45:25;101372.69;;;9.95;64.37
1480;BME280;732;51.698;4.886;2023-03-21T11:47:56;101354.06;;;9.77;64.09
1480;BME280;732;51.698;4.886;2023-03-21T11:50:33;101390.78;;;10.01;63.52
1480;BME280;732;51.698;4.886;2023-03-21T11:53:19;101385.13;;;10.21;63.23
1480;BME280;732;51.698;4.886;2023-03-21T11:56:03;101393.34;;;10.19;61.57
1480;BME280;732;51.698;4.886;2023-03-21T11:58:51;101370.69;;;9.97;61.85
1480;BME280;732;51.698;4.886;2023-03-21T12:01:29;101359.44;;;9.85;61.42
1480;BME280;732;51.698;4.886;2023-03-21T12:04:19;101354.41;;;9.90;61.78
1480;BME280;732;51.698;4.886;2023-03-21T12:06:53;101377.25;;;10.19;60.61
1480;BME280;732;51.698;4.886;2023-03-21T12:09:34;101378.75;;;10.14;59.79
1480;BME280;732;51.698;4.886;2023-03-21T12:12:28;101366.34;;;10.04;61.43
1480;BME280;732;51.698;4.886;2023-03-21T12:15:13;101350.22;;;10.70;61.00
1480;BME280;732;51.698;4.886;2023-03-21T12:17:55;101362.19;;;11.47;60.25
1480;BME280;732;51.698;4.886;2023-03-21T12:20:36;101349.94;;;11.45;56.72
1480;BME280;732;51.698;4.886;2023-03-21T12:23:37;101352.25;;;11.16;57.49
1480;BME280;732;51.698;4.886;2023-03-21T12:26:20;101320.97;;;10.92;56.82
1480;BME280;732;51.698;4.886;2023-03-21T12:29:07;101354.28;;;11.14;57.29
1480;BME280;732;51.698;4.886;2023-03-21T12:31:53;101330.25;;;11.21;56.03
1480;BME280;732;51.698;4.886;2023-03-21T12:35:01;101358.16;;;11.83;56.25
1480;BME280;732;51.698;4.886;2023-03-21T12:37:41;101325.66;;;11.61;54.65
1480;BME280;732;51.698;4.886;2023-03-21T12:40:27;101332.19;;;11.67;53.43
1480;BME280;732;51.698;4.886;2023-03-21T12:43:29;101313.47;;;11.74;52.47
1480;BME280;732;51.698;4.886;2023-03-21T12:46:02;101340.25;;;12.13;53.52
1480;BME280;732;51.698;4.886;2023-03-21T12:48:40;101339.75;;;12.33;53.05
1480;BME280;732;51.698;4.886;2023-03-21T12:51:13;101338.66;;;12.04;52.22
1480;BME280;732;51.698;4.886;2023-03-21T12:53:55;101313.34;;;11.44;54.63
1480;BME280;732;51.698;4.886;2023-03-21T12:56:30;101306.88;;;11.30;54.55
1480;BME280;732;51.698;4.886;2023-03-21T12:59:07;101283.59;;;10.82;55.27
1480;BME280;732;51.698;4.886;2023-03-21T13:01:41;101290.94;;;10.88;55.42
1480;BME280;732;51.698;4.886;2023-03-21T13:04:31;101321.56;;;11.11;54.96
1480;BME280;732;51.698;4.886;2023-03-21T13:07:06;101307.13;;;11.12;54.41
1480;BME280;732;51.698;4.886;2023-03-21T13:09:38;101318.72;;;11.44;54.77
1480;BME280;732;51.698;4.886;2023-03-21T13:12:25;101317.50;;;12.01;54.22
1480;BME280;732;51.698;4.886;2023-03-21T13:15:20;101320.31;;;12.08;53.01
1480;BME280;732;51.698;4.886;2023-03-21T13:18:01;101315.03;;;11.68;53.86
1480;BME280;732;51.698;4.886;2023-03-21T13:20:38;101317.44;;;11.63;54.31
1480;BME280;732;51.698;4.886;2023-03-21T13:23:10;101309.59;;;11.53;54.26
1480;BME280;732;51.698;4.886;2023-03-21T13:25:44;101304.09;;;11.69;55.23
1480;BME280;732;51.698;4.886;2023-03-21T13:28:20;101304.69;;;11.80;54.46
1480;BME280;732;51.698;4.886;2023-03-21T13:30:49;101294.16;;;12.01;53.67
1480;BME280;732;51.698;4.886;2023-03-21T13:33:22;101253.50;;;11.73;53.28
1480;BME280;732;51.698;4.886;2023-03-21T13:35:59;101267.75;;;11.82;54.22
1480;BME280;732;51.698;4.886;2023-03-21T13:38:32;101259.72;;;11.97;53.44
1480;BME280;732;51.698;4.886;2023-03-21T13:41:08;101264.59;;;12.16;53.44
1480;BME280;732;51.698;4.886;2023-03-21T13:43:43;101271.88;;;11.93;53.13
1480;BME280;732;51.698;4.886;2023-03-21T13:46:14;101267.06;;;12.03;53.25
1480;BME280;732;51.698;4.886;2023-03-21T13:48:54;101291.31;;;12.18;54.17
1480;BME280;732;51.698;4.886;2023-03-21T13:51:45;101235.78;;;11.64;53.87
1480;BME280;732;51.698;4.886;2023-03-21T13:54:22;101254.59;;;11.87;53.37
1480;BME280;732;51.698;4.886;2023-03-21T13:56:56;101247.88;;;12.06;54.34
1480;BME280;732;51.698;4.886;2023-03-21T13:59:41;101275.88;;;12.50;54.00
1480;BME280;732;51.698;4.886;2023-03-21T14:02:26;101243.28;;;12.30;53.19
1480;BME280;732;51.698;4.886;2023-03-21T14:05:00;101241.69;;;11.82;54.03
1480;BME280;732;51.698;4.886;2023-03-21T14:07:33;101275.84;;;12.20;54.31
1480;BME280;732;51.698;4.886;2023-03-21T14:10:08;101247.59;;;11.78;54.44
1480;BME280;732;51.698;4.886;2023-03-21T14:12:45;101245.34;;;11.43;55.84
1480;BME280;732;51.698;4.886;2023-03-21T14:15:21;101255.78;;;11.38;56.01
1480;BME280;732;51.698;4.886;2023-03-21T14:17:52;101264.19;;;11.35;56.44
1480;BME280;732;51.698;4.886;2023-03-21T14:20:25;101226.34;;;11.22;57.16
1480;BME280;732;51.698;4.886;2023-03-21T14:22:54;101233.66;;;11.04;57.14